sensor_id;sensor_type;location;lat;lon;timestamp;P1;P2;P0
28026;PMS5003;15344;52.342;-1.290;2023-05-07T00:01:21;13;12;
28026;PMS5003;15344;52.342;-1.290;2023-05-07T00:03:47;9;8;
28026;PMS5003;15344;52.342;-1.290;2023-05-07T00:06:12;8;7;
28026;PMS5003;15344;52.342;-1.290;2023-05-07T00:08:37;10;9;
28026;PMS5003;15344;52.342;-1.290;2023-05-07T00:11:02;8;8;
28026;PMS5003;15344;52.342;-1.290;2023-05-07T00:13:27;10;9;
28026;PMS5003;15344;52.342;-1.290;2023-05-07T00:15:52;10;9;
28026;PMS5003;15344;52.342;-1.290;2023-05-07T00:18:18;8;8;
28026;PMS5003;15344;52.342;-1.290;2023-05-07T00:20:44;14;12;
28026;PMS5003;15344;52.342;-1.290;2023-05-07T00:23:09;11;11;
28026;PMS5003;15344;52.342;-1.290;2023-05-07T00:25:34;9;9;
28026;PMS5003;15344;52.342;-1.290;2023-05-07T00:27:59;6;6;
28026;PMS5003;15344;52.342;-1.290;2023-05-07T00:30:25;6;5;
28026;PMS5003;15344;52.342;-1.290;2023-05-07T00:32:50;16;12;
28026;PMS5003;15344;52.342;-1.290;2023-05-07T00:35:15;11;8;
28026;PMS5003;15344;52.342;-1.290;2023-05-07T00:37:41;10;10;
28026;PMS5003;15344;52.342;-1.290;2023-05-07T00:40:07;8;8;
28026;PMS5003;15344;52.342;-1.290;2023-05-07T00:42:32;11;10;
28026;PMS5003;15344;52.342;-1.290;2023-05-07T00:44:57;14;13;
28026;PMS5003;15344;52.342;-1.290;2023-05-07T00:47:22;12;11;
28026;PMS5003;15344;52.342;-1.290;2023-05-07T00:49:48;13;12;
28026;PMS5003;15344;52.342;-1.290;2023-05-07T00:52:14;11;11;
28026;PMS5003;15344;52.342;-1.290;2023-05-07T00:54:39;14;11;
28026;PMS5003;15344;52.342;-1.290;2023-05-07T00:57:04;11;10;
28026;PMS5003;15344;52.342;-1.290;2023-05-07T00:59:30;14;12;
28026;PMS5003;15344;52.342;-1.290;2023-05-07T01:01:55;12;10;
28026;PMS5003;15344;52.342;-1.290;2023-05-07T01:04:20;14;12;
28026;PMS5003;15344;52.342;-1.290;2023-05-07T01:06:46;18;14;
28026;PMS5003;15344;52.342;-1.290;2023-05-07T01:09:12;16;14;
28026;PMS5003;15344;52.342;-1.290;2023-05-07T01:11:37;13;13;
28026;PMS5003;15344;52.342;-1.290;2023-05-07T01:14:02;16;16;
28026;PMS5003;15344;52.342;-1.290;2023-05-07T01:16:28;14;13;
28026;PMS5003;15344;52.342;-1.290;2023-05-07T01:18:53;12;12;
28026;PMS5003;15344;52.342;-1.290;2023-05-07T01:21:19;18;18;
28026;PMS5003;15344;52.342;-1.290;2023-05-07T01:23:45;14;14;
28026;PMS5003;15344;52.342;-1.290;2023-05-07T01:26:10;17;13;
28026;PMS5003;15344;52.342;-1.290;2023-05-07T01:28:36;15;13;
28026;PMS5003;15344;52.342;-1.290;2023-05-07T01:31:02;20;19;
28026;PMS5003;15344;52.342;-1.290;2023-05-07T01:33:27;15;14;
28026;PMS5003;15344;52.342;-1.290;2023-05-07T01:35:53;21;17;
28026;PMS5003;15344;52.342;-1.290;2023-05-07T01:38:18;15;13;
28026;PMS5003;15344;52.342;-1.290;2023-05-07T01:40:43;17;14;
28026;PMS5003;15344;52.342;-1.290;2023-05-07T01:43:09;18;18;
28026;PMS5003;15344;52.342;-1.290;2023-05-07T01:45:34;22;16;
28026;PMS5003;15344;52.342;-1.290;2023-05-07T01:47:59;18;17;
28026;PMS5003;15344;52.342;-1.290;2023-05-07T01:50:25;18;17;
28026;PMS5003;15344;52.342;-1.290;2023-05-07T01:52:51;20;19;
28026;PMS5003;15344;52.342;-1.290;2023-05-07T01:55:17;19;19;
28026;PMS5003;15344;52.342;-1.290;2023-05-07T01:57:42;15;13;
28026;PMS5003;15344;52.342;-1.290;2023-05-07T02:00:08;17;15;
28026;PMS5003;15344;52.342;-1.290;2023-05-07T02:02:34;16;14;
28026;PMS5003;15344;52.342;-1.290;2023-05-07T02:04:59;19;18;
28026;PMS5003;15344;52.342;-1.290;2023-05-07T02:07:25;20;18;
28026;PMS5003;15344;52.342;-1.290;2023-05-07T02:09:50;20;15;
28026;PMS5003;15344;52.342;-1.290;2023-05-07T02:12:16;18;18;
28026;PMS5003;15344;52.342;-1.290;2023-05-07T02:14:41;19;15;
28026;PMS5003;15344;52.342;-1.290;2023-05-07T02:17:07;18;16;
28026;PMS5003;15344;52.342;-1.290;2023-05-07T02:19:32;24;21;
28026;PMS5003;15344;52.342;-1.290;2023-05-07T02:21:58;25;23;
28026;PMS5003;15344;52.342;-1.290;2023-05-07T02:24:23;16;14;
28026;PMS5003;15344;52.342;-1.290;2023-05-07T02:26:48;22;16;
28026;PMS5003;15344;52.342;-1.290;2023-05-07T02:29:13;22;21;
28026;PMS5003;15344;52.342;-1.290;2023-05-07T02:31:39;21;20;
28026;PMS5003;15344;52.342;-1.290;2023-05-07T02:34:04;22;19;
28026;PMS5003;15344;52.342;-1.290;2023-05-07T02:36:30;19;17;
28026;PMS5003;15344;52.342;-1.290;2023-05-07T02:38:55;23;21;
28026;PMS5003;15344;52.342;-1.290;2023-05-07T02:41:20;22;19;
28026;PMS5003;15344;52.342;-1.290;2023-05-07T02:43:45;21;19;
28026;PMS5003;15344;52.342;-1.290;2023-05-07T02:46:11;25;22;
28026;PMS5003;15344;52.342;-1.290;2023-05-07T02:48:36;22;17;
28026;PMS5003;15344;52.342;-1.290;2023-05-07T02:51:02;24;22;
28026;PMS5003;15344;52.342;-1.290;2023-05-07T02:53:27;21;18;
28026;PMS5003;15344;52.342;-1.290;2023-05-07T02:55:52;27;19;
28026;PMS5003;15344;52.342;-1.290;2023-05-07T02:58:19;20;19;
28026;PMS5003;15344;52.342;-1.290;2023-05-07T03:00:44;21;20;
28026;PMS5003;15344;52.342;-1.290;2023-05-07T03:03:09;21;15;
28026;PMS5003;15344;52.342;-1.290;2023-05-07T03:05:35;16;14;
28026;PMS5003;15344;52.342;-1.290;2023-05-07T03:08:00;21;17;
28026;PMS5003;15344;52.342;-1.290;2023-05-07T03:10:26;23;22;
28026;PMS5003;15344;52.342;-1.290;2023-05-07T03:12:51;27;19;
28026;PMS5003;15344;52.342;-1.290;2023-05-07T03:15:17;21;20;
28026;PMS5003;15344;52.342;-1.290;2023-05-07T03:17:43;23;18;
28026;PMS5003;15344;52.342;-1.290;2023-05-07T03:20:09;19;18;
28026;PMS5003;15344;52.342;-1.290;2023-05-07T03:22:33;20;20;
28026;PMS5003;15344;52.342;-1.290;2023-05-07T03:24:59;27;22;
28026;PMS5003;15344;52.342;-1.290;2023-05-07T03:27:24;19;18;
28026;PMS5003;15344;52.342;-1.290;2023-05-07T03:29:49;25;22;
28026;PMS5003;15344;52.342;-1.290;2023-05-07T03:32:15;20;17;
28026;PMS5003;15344;52.342;-1.290;2023-05-07T03:34:40;23;22;
28026;PMS5003;15344;52.342;-1.290;2023-05-07T03:37:06;28;22;
28026;PMS5003;15344;52.342;-1.290;2023-05-07T03:39:31;17;16;
28026;PMS5003;15344;52.342;-1.290;2023-05-07T03:41:57;24;23;
28026;PMS5003;15344;52.342;-1.290;2023-05-07T03:44:22;20;17;
28026;PMS5003;15344;52.342;-1.290;2023-05-07T03:46:48;27;19;
28026;PMS5003;15344;52.342;-1.290;2023-05-07T03:49:13;21;19;
28026;PMS5003;15344;52.342;-1.290;2023-05-07T03:51:39;18;15;
28026;PMS5003;15344;52.342;-1.290;2023-05-07T03:54:04;15;14;
28026;PMS5003;15344;52.342;-1.290;2023-05-07T03:56:29;20;18;
28026;PMS5003;15344;52.342;-1.290;2023-05-07T03:58:55;19;16;
28026;PMS5003;15344;52.342;-1.290;2023-05-07T04:01:21;24;18;
28026;PMS5003;15344;52.342;-1.290;2023-05-07T04:03:46;23;18;
28026;PMS5003;15344;52.342;-1.290;2023-05-07T04:06:11;16;15;
28026;PMS5003;15344;52.342;-1.290;2023-05-07T04:08:37;27;20;
28026;PMS5003;15344;52.342;-1.290;2023-05-07T04:11:02;26;19;
28026;PMS5003;15344;52.342;-1.290;2023-05-07T04:13:29;20;15;
28026;PMS5003;15344;52.342;-1.290;2023-05-07T04:16:00;25;18;
28026;PMS5003;15344;52.342;-1.290;2023-05-07T04:18:19;20;19;
28026;PMS5003;15344;52.342;-1.290;2023-05-07T04:20:44;17;17;
28026;PMS5003;15344;52.342;-1.290;2023-05-07T04:23:10;21;19;
28026;PMS5003;15344;52.342;-1.290;2023-05-07T04:25:35;18;14;
28026;PMS5003;15344;52.342;-1.290;2023-05-07T04:28:01;20;19;
28026;PMS5003;15344;52.342;-1.290;2023-05-07T04:30:26;17;13;
28026;PMS5003;15344;52.342;-1.290;2023-05-07T04:32:51;19;15;
28026;PMS5003;15344;52.342;-1.290;2023-05-07T04:35:18;20;17;
28026;PMS5003;15344;52.342;-1.290;2023-05-07T04:37:42;18;16;
28026;PMS5003;15344;52.342;-1.290;2023-05-07T04:40:08;19;16;
28026;PMS5003;15344;52.342;-1.290;2023-05-07T04:42:33;24;20;
28026;PMS5003;15344;52.342;-1.290;2023-05-07T04:44:58;19;15;
28026;PMS5003;15344;52.342;-1.290;2023-05-07T04:47:29;19;16;
28026;PMS5003;15344;52.342;-1.290;2023-05-07T04:49:50;18;15;
28026;PMS5003;15344;52.342;-1.290;2023-05-07T04:52:15;21;18;
28026;PMS5003;15344;52.342;-1.290;2023-05-07T04:54:40;19;16;
28026;PMS5003;15344;52.342;-1.290;2023-05-07T04:57:06;18;14;
28026;PMS5003;15344;52.342;-1.290;2023-05-07T04:59:32;17;16;
28026;PMS5003;15344;52.342;-1.290;2023-05-07T05:01:56;18;14;
28026;PMS5003;15344;52.342;-1.290;2023-05-07T05:04:21;15;12;
28026;PMS5003;15344;52.342;-1.290;2023-05-07T05:06:47;17;13;
28026;PMS5003;15344;52.342;-1.290;2023-05-07T05:09:13;20;16;
28026;PMS5003;15344;52.342;-1.290;2023-05-07T05:11:38;14;12;
28026;PMS5003;15344;52.342;-1.290;2023-05-07T05:14:04;21;17;
28026;PMS5003;15344;52.342;-1.290;2023-05-07T05:16:29;15;12;
28026;PMS5003;15344;52.342;-1.290;2023-05-07T05:18:55;18;17;
28026;PMS5003;15344;52.342;-1.290;2023-05-07T05:21:21;16;16;
28026;PMS5003;15344;52.342;-1.290;2023-05-07T05:23:46;20;12;
28026;PMS5003;15344;52.342;-1.290;2023-05-07T05:26:12;16;14;
28026;PMS5003;15344;52.342;-1.290;2023-05-07T05:28:37;21;17;
28026;PMS5003;15344;52.342;-1.290;2023-05-07T05:31:04;16;14;
28026;PMS5003;15344;52.342;-1.290;2023-05-07T05:33:29;19;15;
28026;PMS5003;15344;52.342;-1.290;2023-05-07T05:35:54;15;15;
28026;PMS5003;15344;52.342;-1.290;2023-05-07T05:38:19;16;15;
28026;PMS5003;15344;52.342;-1.290;2023-05-07T05:40:45;17;15;
28026;PMS5003;15344;52.342;-1.290;2023-05-07T05:43:10;17;16;
28026;PMS5003;15344;52.342;-1.290;2023-05-07T05:45:36;14;13;
28026;PMS5003;15344;52.342;-1.290;2023-05-07T05:48:02;25;19;
28026;PMS5003;15344;52.342;-1.290;2023-05-07T05:50:27;19;16;
28026;PMS5003;15344;52.342;-1.290;2023-05-07T05:52:52;19;18;
28026;PMS5003;15344;52.342;-1.290;2023-05-07T05:55:18;18;16;
28026;PMS5003;15344;52.342;-1.290;2023-05-07T05:57:44;17;16;
28026;PMS5003;15344;52.342;-1.290;2023-05-07T06:00:10;16;15;
28026;PMS5003;15344;52.342;-1.290;2023-05-07T06:02:35;15;14;
28026;PMS5003;15344;52.342;-1.290;2023-05-07T06:05:00;15;14;
28026;PMS5003;15344;52.342;-1.290;2023-05-07T06:07:26;19;17;
28026;PMS5003;15344;52.342;-1.290;2023-05-07T06:09:51;19;16;
28026;PMS5003;15344;52.342;-1.290;2023-05-07T06:12:16;21;20;
28026;PMS5003;15344;52.342;-1.290;2023-05-07T06:14:42;18;18;
28026;PMS5003;15344;52.342;-1.290;2023-05-07T06:17:08;21;17;
28026;PMS5003;15344;52.342;-1.290;2023-05-07T06:19:33;23;16;
28026;PMS5003;15344;52.342;-1.290;2023-05-07T06:21:59;22;19;
28026;PMS5003;15344;52.342;-1.290;2023-05-07T06:24:25;18;18;
28026;PMS5003;15344;52.342;-1.290;2023-05-07T06:26:50;15;15;
28026;PMS5003;15344;52.342;-1.290;2023-05-07T06:29:15;20;19;
28026;PMS5003;15344;52.342;-1.290;2023-05-07T06:31:41;18;18;
28026;PMS5003;15344;52.342;-1.290;2023-05-07T06:34:07;22;17;
28026;PMS5003;15344;52.342;-1.290;2023-05-07T06:36:32;16;14;
28026;PMS5003;15344;52.342;-1.290;2023-05-07T06:38:57;17;15;
28026;PMS5003;15344;52.342;-1.290;2023-05-07T06:41:22;21;19;
28026;PMS5003;15344;52.342;-1.290;2023-05-07T06:43:48;22;16;
28026;PMS5003;15344;52.342;-1.290;2023-05-07T06:46:13;22;18;
28026;PMS5003;15344;52.342;-1.290;2023-05-07T06:48:39;20;19;
28026;PMS5003;15344;52.342;-1.290;2023-05-07T06:51:04;28;25;
28026;PMS5003;15344;52.342;-1.290;2023-05-07T06:53:29;23;22;
28026;PMS5003;15344;52.342;-1.290;2023-05-07T06:55:55;17;15;
28026;PMS5003;15344;52.342;-1.290;2023-05-07T06:58:20;24;18;
28026;PMS5003;15344;52.342;-1.290;2023-05-07T07:00:46;21;19;
28026;PMS5003;15344;52.342;-1.290;2023-05-07T07:03:11;18;17;
28026;PMS5003;15344;52.342;-1.290;2023-05-07T07:05:36;24;21;
28026;PMS5003;15344;52.342;-1.290;2023-05-07T07:08:02;21;19;
28026;PMS5003;15344;52.342;-1.290;2023-05-07T07:10:27;15;15;
28026;PMS5003;15344;52.342;-1.290;2023-05-07T07:12:53;14;14;
28026;PMS5003;15344;52.342;-1.290;2023-05-07T07:15:19;12;12;
28026;PMS5003;15344;52.342;-1.290;2023-05-07T07:17:44;17;16;
28026;PMS5003;15344;52.342;-1.290;2023-05-07T07:20:10;21;19;
28026;PMS5003;15344;52.342;-1.290;2023-05-07T07:22:35;24;18;
28026;PMS5003;15344;52.342;-1.290;2023-05-07T07:25:00;18;16;
28026;PMS5003;15344;52.342;-1.290;2023-05-07T07:27:25;29;20;
28026;PMS5003;15344;52.342;-1.290;2023-05-07T07:29:51;25;21;
28026;PMS5003;15344;52.342;-1.290;2023-05-07T07:32:16;22;20;
28026;PMS5003;15344;52.342;-1.290;2023-05-07T07:34:42;25;23;
28026;PMS5003;15344;52.342;-1.290;2023-05-07T07:37:07;24;24;
28026;PMS5003;15344;52.342;-1.290;2023-05-07T07:39:32;20;18;
28026;PMS5003;15344;52.342;-1.290;2023-05-07T07:41:57;22;19;
28026;PMS5003;15344;52.342;-1.290;2023-05-07T07:44:22;17;17;
28026;PMS5003;15344;52.342;-1.290;2023-05-07T07:46:48;19;17;
28026;PMS5003;15344;52.342;-1.290;2023-05-07T07:49:14;22;20;
28026;PMS5003;15344;52.342;-1.290;2023-05-07T07:51:39;31;22;
28026;PMS5003;15344;52.342;-1.290;2023-05-07T07:54:05;19;16;
28026;PMS5003;15344;52.342;-1.290;2023-05-07T07:58:55;29;27;
28026;PMS5003;15344;52.342;-1.290;2023-05-07T08:01:21;23;18;
28026;PMS5003;15344;52.342;-1.290;2023-05-07T08:03:46;22;21;
28026;PMS5003;15344;52.342;-1.290;2023-05-07T08:06:12;22;19;
28026;PMS5003;15344;52.342;-1.290;2023-05-07T08:08:37;26;20;
28026;PMS5003;15344;52.342;-1.290;2023-05-07T08:11:03;28;22;
28026;PMS5003;15344;52.342;-1.290;2023-05-07T08:13:28;23;17;
28026;PMS5003;15344;52.342;-1.290;2023-05-07T08:15:53;19;19;
28026;PMS5003;15344;52.342;-1.290;2023-05-07T08:18:19;27;22;
28026;PMS5003;15344;52.342;-1.290;2023-05-07T08:20:44;28;25;
28026;PMS5003;15344;52.342;-1.290;2023-05-07T08:23:09;22;19;
28026;PMS5003;15344;52.342;-1.290;2023-05-07T08:25:34;15;14;
28026;PMS5003;15344;52.342;-1.290;2023-05-07T08:28:00;22;18;
28026;PMS5003;15344;52.342;-1.290;2023-05-07T08:30:25;17;17;
28026;PMS5003;15344;52.342;-1.290;2023-05-07T08:32:51;13;12;
28026;PMS5003;15344;52.342;-1.290;2023-05-07T08:35:16;14;14;
28026;PMS5003;15344;52.342;-1.290;2023-05-07T08:37:42;12;12;
28026;PMS5003;15344;52.342;-1.290;2023-05-07T08:40:08;18;17;
28026;PMS5003;15344;52.342;-1.290;2023-05-07T08:42:33;19;15;
28026;PMS5003;15344;52.342;-1.290;2023-05-07T08:44:58;19;16;
28026;PMS5003;15344;52.342;-1.290;2023-05-07T08:47:23;13;12;
28026;PMS5003;15344;52.342;-1.290;2023-05-07T08:49:48;12;12;
28026;PMS5003;15344;52.342;-1.290;2023-05-07T08:52:13;14;10;
28026;PMS5003;15344;52.342;-1.290;2023-05-07T08:54:39;15;15;
28026;PMS5003;15344;52.342;-1.290;2023-05-07T08:57:05;13;12;
28026;PMS5003;15344;52.342;-1.290;2023-05-07T08:59:29;11;11;
28026;PMS5003;15344;52.342;-1.290;2023-05-07T09:01:55;15;13;
28026;PMS5003;15344;52.342;-1.290;2023-05-07T09:04:21;12;8;
28026;PMS5003;15344;52.342;-1.290;2023-05-07T09:06:46;11;9;
28026;PMS5003;15344;52.342;-1.290;2023-05-07T09:09:13;11;8;
28026;PMS5003;15344;52.342;-1.290;2023-05-07T09:11:37;7;7;
28026;PMS5003;15344;52.342;-1.290;2023-05-07T09:14:03;14;12;
28026;PMS5003;15344;52.342;-1.290;2023-05-07T09:16:28;13;9;
28026;PMS5003;15344;52.342;-1.290;2023-05-07T09:18:54;14;13;
28026;PMS5003;15344;52.342;-1.290;2023-05-07T09:21:19;8;8;
28026;PMS5003;15344;52.342;-1.290;2023-05-07T09:23:44;8;6;
28026;PMS5003;15344;52.342;-1.290;2023-05-07T09:26:09;6;6;
28026;PMS5003;15344;52.342;-1.290;2023-05-07T09:28:34;10;6;
28026;PMS5003;15344;52.342;-1.290;2023-05-07T09:30:59;6;6;
28026;PMS5003;15344;52.342;-1.290;2023-05-07T09:33:26;6;6;
28026;PMS5003;15344;52.342;-1.290;2023-05-07T09:35:50;11;8;
28026;PMS5003;15344;52.342;-1.290;2023-05-07T09:38:16;10;8;
28026;PMS5003;15344;52.342;-1.290;2023-05-07T09:40:41;12;10;
28026;PMS5003;15344;52.342;-1.290;2023-05-07T09:43:09;10;9;
28026;PMS5003;15344;52.342;-1.290;2023-05-07T09:45:32;7;5;
28026;PMS5003;15344;52.342;-1.290;2023-05-07T09:47:58;7;6;
28026;PMS5003;15344;52.342;-1.290;2023-05-07T09:50:25;7;5;
28026;PMS5003;15344;52.342;-1.290;2023-05-07T09:52:49;7;5;
28026;PMS5003;15344;52.342;-1.290;2023-05-07T09:55:15;5;5;
28026;PMS5003;15344;52.342;-1.290;2023-05-07T09:57:41;7;7;
28026;PMS5003;15344;52.342;-1.290;2023-05-07T10:00:07;8;8;
28026;PMS5003;15344;52.342;-1.290;2023-05-07T10:02:33;10;7;
28026;PMS5003;15344;52.342;-1.290;2023-05-07T10:04:59;7;6;
28026;PMS5003;15344;52.342;-1.290;2023-05-07T10:07:25;6;4;
28026;PMS5003;15344;52.342;-1.290;2023-05-07T10:09:50;2;2;
28026;PMS5003;15344;52.342;-1.290;2023-05-07T10:12:16;3;3;
28026;PMS5003;15344;52.342;-1.290;2023-05-07T10:14:42;5;4;
28026;PMS5003;15344;52.342;-1.290;2023-05-07T10:17:08;3;3;
28026;PMS5003;15344;52.342;-1.290;2023-05-07T10:19:33;2;2;
28026;PMS5003;15344;52.342;-1.290;2023-05-07T10:22:00;5;4;
28026;PMS5003;15344;52.342;-1.290;2023-05-07T10:24:25;6;3;
28026;PMS5003;15344;52.342;-1.290;2023-05-07T10:26:51;3;3;
28026;PMS5003;15344;52.342;-1.290;2023-05-07T10:29:18;4;4;
28026;PMS5003;15344;52.342;-1.290;2023-05-07T10:31:47;4;4;
28026;PMS5003;15344;52.342;-1.290;2023-05-07T10:34:08;6;4;
28026;PMS5003;15344;52.342;-1.290;2023-05-07T10:36:34;5;4;
28026;PMS5003;15344;52.342;-1.290;2023-05-07T10:38:59;3;3;
28026;PMS5003;15344;52.342;-1.290;2023-05-07T10:41:25;5;5;
28026;PMS5003;15344;52.342;-1.290;2023-05-07T10:43:51;4;4;
28026;PMS5003;15344;52.342;-1.290;2023-05-07T10:46:17;6;4;
28026;PMS5003;15344;52.342;-1.290;2023-05-07T10:53:34;3;3;
28026;PMS5003;15344;52.342;-1.290;2023-05-07T10:58:26;5;5;
28026;PMS5003;15344;52.342;-1.290;2023-05-07T11:00:55;4;4;
28026;PMS5003;15344;52.342;-1.290;2023-05-07T11:03:17;2;2;
28026;PMS5003;15344;52.342;-1.290;2023-05-07T11:05:43;6;4;
28026;PMS5003;15344;52.342;-1.290;2023-05-07T11:08:09;5;4;
28026;PMS5003;15344;52.342;-1.290;2023-05-07T11:13:00;5;5;
28026;PMS5003;15344;52.342;-1.290;2023-05-07T11:17:52;6;3;
28026;PMS5003;15344;52.342;-1.290;2023-05-07T11:20:18;9;5;
28026;PMS5003;15344;52.342;-1.290;2023-05-07T11:22:43;5;5;
28026;PMS5003;15344;52.342;-1.290;2023-05-07T11:25:09;3;3;
28026;PMS5003;15344;52.342;-1.290;2023-05-07T11:27:35;2;2;
28026;PMS5003;15344;52.342;-1.290;2023-05-07T11:30:01;8;6;
28026;PMS5003;15344;52.342;-1.290;2023-05-07T11:32:27;3;3;
28026;PMS5003;15344;52.342;-1.290;2023-05-07T11:34:53;4;4;
28026;PMS5003;15344;52.342;-1.290;2023-05-07T11:37:19;5;4;
28026;PMS5003;15344;52.342;-1.290;2023-05-07T11:39:44;3;3;
28026;PMS5003;15344;52.342;-1.290;2023-05-07T11:47:01;3;3;
28026;PMS5003;15344;52.342;-1.290;2023-05-07T11:49:27;5;4;
28026;PMS5003;15344;52.342;-1.290;2023-05-07T11:51:53;4;2;
28026;PMS5003;15344;52.342;-1.290;2023-05-07T11:54:19;5;4;
28026;PMS5003;15344;52.342;-1.290;2023-05-07T11:56:44;6;5;
28026;PMS5003;15344;52.342;-1.290;2023-05-07T11:59:10;3;3;
28026;PMS5003;15344;52.342;-1.290;2023-05-07T12:01:36;3;3;
28026;PMS5003;15344;52.342;-1.290;2023-05-07T12:04:02;4;4;
28026;PMS5003;15344;52.342;-1.290;2023-05-07T12:06:27;4;3;
28026;PMS5003;15344;52.342;-1.290;2023-05-07T12:08:53;3;3;
28026;PMS5003;15344;52.342;-1.290;2023-05-07T12:11:22;5;3;
28026;PMS5003;15344;52.342;-1.290;2023-05-07T12:13:45;4;4;
28026;PMS5003;15344;52.342;-1.290;2023-05-07T12:16:11;4;4;
28026;PMS5003;15344;52.342;-1.290;2023-05-07T12:18:36;3;3;
28026;PMS5003;15344;52.342;-1.290;2023-05-07T12:21:03;4;4;
28026;PMS5003;15344;52.342;-1.290;2023-05-07T12:23:28;4;3;
28026;PMS5003;15344;52.342;-1.290;2023-05-07T12:25:54;5;3;
28026;PMS5003;15344;52.342;-1.290;2023-05-07T12:28:20;3;3;
28026;PMS5003;15344;52.342;-1.290;2023-05-07T12:30:46;28;15;
28026;PMS5003;15344;52.342;-1.290;2023-05-07T12:33:11;182;117;
28026;PMS5003;15344;52.342;-1.290;2023-05-07T12:35:37;67;49;
28026;PMS5003;15344;52.342;-1.290;2023-05-07T12:38:02;15;12;
28026;PMS5003;15344;52.342;-1.290;2023-05-07T12:42:53;5;2;
28026;PMS5003;15344;52.342;-1.290;2023-05-07T12:45:19;3;2;
28026;PMS5003;15344;52.342;-1.290;2023-05-07T12:47:45;5;3;
28026;PMS5003;15344;52.342;-1.290;2023-05-07T12:50:11;4;3;
28026;PMS5003;15344;52.342;-1.290;2023-05-07T12:52:36;3;3;
28026;PMS5003;15344;52.342;-1.290;2023-05-07T12:55:05;5;5;
28026;PMS5003;15344;52.342;-1.290;2023-05-07T12:57:28;5;4;
28026;PMS5003;15344;52.342;-1.290;2023-05-07T12:59:57;3;3;
28026;PMS5003;15344;52.342;-1.290;2023-05-07T13:02:20;5;3;
28026;PMS5003;15344;52.342;-1.290;2023-05-07T13:04:45;3;2;
28026;PMS5003;15344;52.342;-1.290;2023-05-07T13:07:11;2;2;
28026;PMS5003;15344;52.342;-1.290;2023-05-07T13:09:37;2;2;
28026;PMS5003;15344;52.342;-1.290;2023-05-07T13:12:03;3;1;
28026;PMS5003;15344;52.342;-1.290;2023-05-07T13:14:29;3;2;
28026;PMS5003;15344;52.342;-1.290;2023-05-07T13:16:54;4;4;
28026;PMS5003;15344;52.342;-1.290;2023-05-07T13:19:20;3;3;
28026;PMS5003;15344;52.342;-1.290;2023-05-07T13:21:46;3;2;
28026;PMS5003;15344;52.342;-1.290;2023-05-07T13:24:12;2;2;
28026;PMS5003;15344;52.342;-1.290;2023-05-07T13:26:38;1;1;
28026;PMS5003;15344;52.342;-1.290;2023-05-07T13:29:04;2;2;
28026;PMS5003;15344;52.342;-1.290;2023-05-07T13:31:29;3;3;
28026;PMS5003;15344;52.342;-1.290;2023-05-07T13:33:55;4;4;
28026;PMS5003;15344;52.342;-1.290;2023-05-07T13:36:21;2;2;
28026;PMS5003;15344;52.342;-1.290;2023-05-07T13:38:47;2;2;
28026;PMS5003;15344;52.342;-1.290;2023-05-07T13:41:13;4;2;
28026;PMS5003;15344;52.342;-1.290;2023-05-07T13:43:38;2;2;
28026;PMS5003;15344;52.342;-1.290;2023-05-07T13:46:04;2;2;
28026;PMS5003;15344;52.342;-1.290;2023-05-07T13:48:30;1;1;
28026;PMS5003;15344;52.342;-1.290;2023-05-07T13:50:56;1;1;
28026;PMS5003;15344;52.342;-1.290;2023-05-07T13:53:21;3;3;
28026;PMS5003;15344;52.342;-1.290;2023-05-07T13:55:46;1;1;
28026;PMS5003;15344;52.342;-1.290;2023-05-07T13:58:11;2;2;
28026;PMS5003;15344;52.342;-1.290;2023-05-07T14:00:36;3;2;
28026;PMS5003;15344;52.342;-1.290;2023-05-07T14:03:02;1;1;
28026;PMS5003;15344;52.342;-1.290;2023-05-07T14:05:27;4;3;
28026;PMS5003;15344;52.342;-1.290;2023-05-07T14:07:52;2;2;
28026;PMS5003;15344;52.342;-1.290;2023-05-07T14:10:17;3;3;
28026;PMS5003;15344;52.342;-1.290;2023-05-07T14:12:42;2;2;
28026;PMS5003;15344;52.342;-1.290;2023-05-07T14:15:07;1;1;
28026;PMS5003;15344;52.342;-1.290;2023-05-07T14:17:32;4;2;
28026;PMS5003;15344;52.342;-1.290;2023-05-07T14:19:57;1;1;
28026;PMS5003;15344;52.342;-1.290;2023-05-07T14:22:22;3;1;
28026;PMS5003;15344;52.342;-1.290;2023-05-07T14:24:47;3;3;
28026;PMS5003;15344;52.342;-1.290;2023-05-07T14:27:12;2;2;
28026;PMS5003;15344;52.342;-1.290;2023-05-07T14:29:37;2;2;
28026;PMS5003;15344;52.342;-1.290;2023-05-07T14:32:02;3;3;
28026;PMS5003;15344;52.342;-1.290;2023-05-07T14:34:27;3;2;
28026;PMS5003;15344;52.342;-1.290;2023-05-07T14:36:52;1;1;
28026;PMS5003;15344;52.342;-1.290;2023-05-07T14:39:17;3;3;
28026;PMS5003;15344;52.342;-1.290;2023-05-07T14:41:42;3;3;
28026;PMS5003;15344;52.342;-1.290;2023-05-07T14:44:08;2;2;
28026;PMS5003;15344;52.342;-1.290;2023-05-07T14:46:33;1;1;
28026;PMS5003;15344;52.342;-1.290;2023-05-07T14:48:58;2;1;
28026;PMS5003;15344;52.342;-1.290;2023-05-07T14:51:23;3;3;
28026;PMS5003;15344;52.342;-1.290;2023-05-07T14:53:48;3;2;
28026;PMS5003;15344;52.342;-1.290;2023-05-07T14:56:13;4;2;
28026;PMS5003;15344;52.342;-1.290;2023-05-07T14:58:38;6;4;
28026;PMS5003;15344;52.342;-1.290;2023-05-07T15:01:03;1;1;
28026;PMS5003;15344;52.342;-1.290;2023-05-07T15:03:28;2;2;
28026;PMS5003;15344;52.342;-1.290;2023-05-07T15:05:53;4;3;
28026;PMS5003;15344;52.342;-1.290;2023-05-07T15:08:18;2;2;
28026;PMS5003;15344;52.342;-1.290;2023-05-07T15:10:43;2;2;
28026;PMS5003;15344;52.342;-1.290;2023-05-07T15:13:08;1;1;
28026;PMS5003;15344;52.342;-1.290;2023-05-07T15:15:33;2;2;
28026;PMS5003;15344;52.342;-1.290;2023-05-07T15:17:58;2;2;
28026;PMS5003;15344;52.342;-1.290;2023-05-07T15:20:23;2;2;
28026;PMS5003;15344;52.342;-1.290;2023-05-07T15:22:48;3;3;
28026;PMS5003;15344;52.342;-1.290;2023-05-07T15:25:13;2;2;
28026;PMS5003;15344;52.342;-1.290;2023-05-07T15:27:38;3;3;
28026;PMS5003;15344;52.342;-1.290;2023-05-07T15:30:03;5;4;
28026;PMS5003;15344;52.342;-1.290;2023-05-07T15:32:28;6;3;
28026;PMS5003;15344;52.342;-1.290;2023-05-07T15:34:53;3;3;
28026;PMS5003;15344;52.342;-1.290;2023-05-07T15:37:18;2;1;
28026;PMS5003;15344;52.342;-1.290;2023-05-07T15:39:43;2;2;
28026;PMS5003;15344;52.342;-1.290;2023-05-07T15:42:08;1;1;
28026;PMS5003;15344;52.342;-1.290;2023-05-07T15:44:33;2;2;
28026;PMS5003;15344;52.342;-1.290;2023-05-07T15:46:58;3;3;
28026;PMS5003;15344;52.342;-1.290;2023-05-07T15:49:23;2;2;
28026;PMS5003;15344;52.342;-1.290;2023-05-07T15:51:48;4;2;
28026;PMS5003;15344;52.342;-1.290;2023-05-07T15:54:13;4;1;
28026;PMS5003;15344;52.342;-1.290;2023-05-07T15:56:38;4;3;
28026;PMS5003;15344;52.342;-1.290;2023-05-07T15:59:03;3;2;
28026;PMS5003;15344;52.342;-1.290;2023-05-07T16:01:28;1;1;
28026;PMS5003;15344;52.342;-1.290;2023-05-07T16:03:53;2;2;
28026;PMS5003;15344;52.342;-1.290;2023-05-07T16:06:19;1;1;
28026;PMS5003;15344;52.342;-1.290;2023-05-07T16:08:43;1;1;
28026;PMS5003;15344;52.342;-1.290;2023-05-07T16:11:08;2;2;
28026;PMS5003;15344;52.342;-1.290;2023-05-07T16:13:33;3;1;
28026;PMS5003;15344;52.342;-1.290;2023-05-07T16:15:58;2;2;
28026;PMS5003;15344;52.342;-1.290;2023-05-07T16:18:24;1;1;
28026;PMS5003;15344;52.342;-1.290;2023-05-07T16:20:48;4;3;
28026;PMS5003;15344;52.342;-1.290;2023-05-07T16:23:14;4;2;
28026;PMS5003;15344;52.342;-1.290;2023-05-07T16:25:39;4;2;